Time;durP1;ratioP1;P1;durP2;ratioP2;P2;SDS_P1;SDS_P2;PMS_P1;PMS_P2;Temp;Humidity;BMP_temperature;BMP_pressure;BME280_temperature;BME280_humidity;BME280_pressure;Samples;Min_cycle;Max_cycle;Signal;HPM_P1;HPM_P2
2020/12/24 00:00:19;;;;;;;14.15;2.83;;;;;;;8.05;79.84;99418.22;5069871;28;20044;-72
2020/12/24 00:02:45;;;;;;;12.15;2.60;;;;;;;8.01;80.05;99412.25;5066851;28;20049;-71
2020/12/24 00:05:13;;;;;;;13.77;3.15;;;;;;;7.99;80.07;99412.31;5071351;28;20056;-71
2020/12/24 00:07:40;;;;;;;15.75;2.45;;;;;;;8.02;79.38;99411.28;5077766;28;20094;-71
2020/12/24 00:10:07;;;;;;;11.93;2.75;;;;;;;8.02;79.78;99417.44;5077741;28;20062;-71
2020/12/24 00:12:34;;;;;;;14.43;1.83;;;;;;;8.06;79.10;99401.31;5077682;28;20072;-70
2020/12/24 00:15:00;;;;;;;13.07;2.17;;;;;;;8.08;79.07;99407.38;5059567;28;20056;-71
2020/12/24 00:17:26;;;;;;;17.00;2.58;;;;;;;8.07;79.34;99401.19;5076680;28;20052;-71
2020/12/24 00:19:52;;;;;;;16.13;2.42;;;;;;;8.02;78.10;99401.47;5076226;28;20434;-71
2020/12/24 00:22:18;;;;;;;11.27;2.28;;;;;;;8.11;77.71;99396.53;5077293;28;20060;-71
2020/12/24 00:24:44;;;;;;;21.25;2.92;;;;;;;8.13;77.80;99399.97;5077524;28;20303;-71
2020/12/24 00:27:10;;;;;;;14.15;2.17;;;;;;;8.12;78.21;99398.28;5077663;28;20070;-70
2020/12/24 00:29:39;;;;;;;16.25;2.20;;;;;;;8.05;78.72;99387.16;5077124;28;20086;-70
2020/12/24 00:32:05;;;;;;;17.27;3.38;;;;;;;8.07;79.01;99389.72;5077543;28;20775;-71
2020/12/24 00:34:31;;;;;;;13.20;2.65;;;;;;;8.07;78.34;99381.75;5077035;28;20422;-71
2020/12/24 00:36:57;;;;;;;17.33;2.60;;;;;;;8.07;79.02;99393.22;5077263;28;20136;-71
2020/12/24 00:39:24;;;;;;;13.00;2.03;;;;;;;8.07;77.04;99379.09;5077111;28;20057;-72
2020/12/24 00:41:51;;;;;;;8.25;2.10;;;;;;;8.09;77.55;99375.41;5076888;28;20048;-71
2020/12/24 00:44:21;;;;;;;8.15;2.25;;;;;;;8.06;77.74;99377.41;5076234;28;20049;-71
2020/12/24 00:46:48;;;;;;;15.00;2.33;;;;;;;8.12;77.55;99377.00;5077075;28;20060;-71
2020/12/24 00:49:14;;;;;;;15.25;2.20;;;;;;;7.99;77.09;99355.66;5077329;28;20048;-71
2020/12/24 00:51:41;;;;;;;16.75;2.83;;;;;;;8.08;77.24;99370.16;5077157;28;20049;-73
2020/12/24 00:54:07;;;;;;;15.38;2.42;;;;;;;8.04;76.91;99368.63;5075756;28;20045;-70
2020/12/24 00:56:34;;;;;;;17.70;3.10;;;;;;;8.05;76.35;99384.50;5077021;28;20080;-71
2020/12/24 00:59:00;;;;;;;17.00;2.40;;;;;;;7.98;77.79;99380.53;5076917;28;20056;-72
2020/12/24 01:01:26;;;;;;;8.23;1.60;;;;;;;8.04;76.95;99376.63;5076771;28;20060;-72
2020/12/24 01:03:52;;;;;;;10.50;2.42;;;;;;;8.02;77.37;99374.06;5076936;28;20056;-71
2020/12/24 01:06:18;;;;;;;13.52;2.30;;;;;;;7.93;76.57;99353.38;5076863;28;20083;-71
2020/12/24 01:08:45;;;;;;;15.60;2.05;;;;;;;8.01;75.96;99367.06;5075732;28;20151;-71
2020/12/24 01:11:11;;;;;;;13.15;2.25;;;;;;;8.00;76.78;99371.50;5076772;28;20106;-71
2020/12/24 01:13:37;;;;;;;14.13;2.47;;;;;;;7.88;76.59;99351.03;5076657;28;20044;-71
2020/12/24 01:16:04;;;;;;;10.10;2.80;;;;;;;7.98;76.01;99364.56;5076385;28;20053;-72
2020/12/24 01:18:30;;;;;;;13.00;2.60;;;;;;;7.96;75.89;99366.50;5076366;28;20064;-71
2020/12/24 01:20:56;;;;;;;14.30;2.70;;;;;;;8.00;76.10;99363.53;5075402;28;20048;-72
2020/12/24 01:23:23;;;;;;;9.00;2.13;;;;;;;7.91;75.72;99366.78;5075066;28;20362;-71
2020/12/24 01:25:49;;;;;;;14.50;1.83;;;;;;;7.92;76.32;99375.59;5076171;28;20056;-71
2020/12/24 01:28:19;;;;;;;11.15;2.25;;;;;;;7.98;75.09;99367.25;5075328;28;20056;-71
2020/12/24 01:30:45;;;;;;;11.38;2.10;;;;;;;7.97;74.82;99373.50;5076051;28;20059;-71
2020/12/24 01:33:11;;;;;;;21.58;3.35;;;;;;;7.95;75.44;99376.25;5076278;28;20052;-72
2020/12/24 01:35:37;;;;;;;16.95;2.45;;;;;;;7.96;74.89;99380.59;5074943;28;20052;-71
2020/12/24 01:38:03;;;;;;;14.55;2.80;;;;;;;7.85;75.68;99364.50;5075946;28;20056;-72
2020/12/24 01:40:36;;;;;;;17.63;2.00;;;;;;;7.97;75.35;99374.38;5076224;28;20076;-71
2020/12/24 01:43:02;;;;;;;13.55;2.25;;;;;;;8.00;76.82;99376.81;5075881;28;20056;-71
2020/12/24 01:45:30;;;;;;;15.48;2.85;;;;;;;7.75;81.00;99372.19;5075766;28;20052;-71
2020/12/24 01:48:06;;;;;;;20.15;2.42;;;;;;;7.38;82.05;99377.09;5075955;28;20365;-71
2020/12/24 01:50:33;;;;;;;14.63;2.05;;;;;;;7.18;82.70;99385.31;5074539;28;20450;-71
2020/12/24 01:53:22;;;;;;;9.15;2.03;;;;;;;7.12;83.65;99380.38;5075071;28;20060;-71
2020/12/24 01:55:49;;;;;;;13.80;2.35;;;;;;;7.05;82.24;99377.22;5075535;28;20055;-70
2020/12/24 01:58:18;;;;;;;11.63;3.88;;;;;;;7.05;82.00;99379.88;5075495;28;20044;-71
2020/12/24 02:00:46;;;;;;;11.25;2.20;;;;;;;7.03;83.65;99373.78;5075798;28;20098;-71
2020/12/24 02:03:16;;;;;;;15.02;2.35;;;;;;;7.04;83.71;99382.63;5075415;28;20106;-70
2020/12/24 02:05:43;;;;;;;12.82;2.08;;;;;;;6.93;84.62;99356.72;5075337;28;20434;-72
2020/12/24 02:08:15;;;;;;;11.55;1.83;;;;;;;7.01;83.68;99377.47;5075544;28;20060;-72
2020/12/24 02:10:41;;;;;;;10.57;2.40;;;;;;;6.93;83.98;99356.72;5075427;28;20071;-71
2020/12/24 02:13:07;;;;;;;9.90;1.60;;;;;;;6.90;83.85;99373.69;5075534;28;20048;-73
2020/12/24 02:15:33;;;;;;;16.17;2.25;;;;;;;6.81;83.88;99342.38;5075565;28;20040;-72
2020/12/24 02:17:59;;;;;;;14.25;1.75;;;;;;;6.91;84.02;99355.94;5074396;28;20121;-72
2020/12/24 02:20:25;;;;;;;9.75;1.63;;;;;;;6.91;83.36;99353.28;5075037;28;20060;-73
2020/12/24 02:22:52;;;;;;;11.02;1.55;;;;;;;6.85;83.35;99333.28;5074306;28;20052;-72
2020/12/24 02:25:18;;;;;;;11.40;2.08;;;;;;;6.85;84.11;99343.03;5075142;28;20126;-73
2020/12/24 02:27:44;;;;;;;9.05;1.90;;;;;;;6.83;84.68;99332.53;5074954;28;20060;-72
2020/12/24 02:30:10;;;;;;;16.02;2.22;;;;;;;6.81;84.85;99346.84;5074452;28;20098;-71
2020/12/24 02:32:36;;;;;;;14.70;2.15;;;;;;;6.76;84.80;99344.47;5075083;28;20052;-71
2020/12/24 02:35:04;;;;;;;12.15;2.03;;;;;;;6.76;84.52;99336.50;5074973;28;20056;-72
2020/12/24 02:37:31;;;;;;;13.57;2.10;;;;;;;6.78;84.87;99331.94;5075234;28;20053;-72
2020/12/24 02:39:57;;;;;;;12.15;2.00;;;;;;;6.71;84.97;99322.66;5075210;28;20048;-71
2020/12/24 02:42:24;;;;;;;10.98;2.17;;;;;;;6.73;85.15;99328.72;5074893;28;20094;-72
2020/12/24 02:44:50;;;;;;;14.20;1.92;;;;;;;6.81;84.54;99330.91;5075285;28;20320;-71
2020/12/24 02:47:16;;;;;;;10.57;1.80;;;;;;;6.77;85.39;99324.94;5074879;28;20105;-71
2020/12/24 02:49:54;;;;;;;15.25;2.08;;;;;;;6.79;85.17;99328.34;5075276;28;20056;-72
2020/12/24 02:52:20;;;;;;;12.02;2.30;;;;;;;6.83;84.69;99329.88;5075027;28;20052;-72
2020/12/24 02:54:46;;;;;;;15.27;2.05;;;;;;;6.89;84.88;99328.66;5057488;28;20115;-71
2020/12/24 02:57:13;;;;;;;16.05;2.55;;;;;;;6.95;83.88;99328.31;5074686;28;20472;-72
2020/12/24 02:59:39;;;;;;;11.43;1.85;;;;;;;6.93;83.91;99314.28;5074864;28;20141;-72
2020/12/24 03:02:05;;;;;;;14.02;2.28;;;;;;;6.96;84.49;99311.44;5074683;28;20099;-71
2020/12/24 03:04:33;;;;;;;9.20;2.00;;;;;;;6.93;84.44;99308.97;5078168;28;20131;-72
2020/12/24 03:06:59;;;;;;;12.38;2.25;;;;;;;6.95;84.33;99309.72;5078873;28;20059;-72
2020/12/24 03:09:25;;;;;;;10.15;1.73;;;;;;;6.91;84.38;99311.72;5077783;28;20052;-71
2020/12/24 03:11:52;;;;;;;11.35;2.10;;;;;;;6.91;84.07;99306.41;5077649;28;20181;-72
2020/12/24 03:14:18;;;;;;;20.45;2.58;;;;;;;6.91;84.06;99310.84;5078645;28;20067;-72
2020/12/24 03:16:48;;;;;;;12.63;1.90;;;;;;;6.90;85.04;99302.06;5078493;28;20078;-72
2020/12/24 03:19:14;;;;;;;11.20;2.20;;;;;;;6.85;85.03;99295.28;5078541;28;20490;-72
2020/12/24 03:21:40;;;;;;;11.23;1.95;;;;;;;6.89;84.52;99295.03;5078551;28;20487;-72
2020/12/24 03:24:07;;;;;;;16.17;2.85;;;;;;;6.93;84.73;99299.19;5078499;28;20060;-71
2020/12/24 03:26:33;;;;;;;17.17;2.20;;;;;;;6.97;84.63;99293.72;5078814;28;20127;-71
2020/12/24 03:28:59;;;;;;;14.57;1.95;;;;;;;7.00;83.86;99305.00;5078290;28;20089;-71
2020/12/24 03:31:26;;;;;;;11.05;2.28;;;;;;;7.04;83.42;99303.84;5078401;28;20056;-70
2020/12/24 03:33:54;;;;;;;8.60;2.17;;;;;;;7.07;83.51;99295.72;5078232;28;20052;-71
2020/12/24 03:36:20;;;;;;;14.00;2.22;;;;;;;7.15;83.01;99305.88;5078420;28;20098;-71
2020/12/24 03:38:46;;;;;;;16.00;2.50;;;;;;;7.06;83.71;99294.03;5078264;28;20052;-71
2020/12/24 03:41:13;;;;;;;11.98;1.85;;;;;;;7.09;83.44;99290.34;5078564;28;20131;-71
2020/12/24 03:43:39;;;;;;;7.05;1.70;;;;;;;7.09;83.98;99292.13;5076978;28;20053;-71
2020/12/24 03:46:05;;;;;;;16.20;2.72;;;;;;;7.16;83.73;99294.31;5078367;28;20052;-71
2020/12/24 03:48:31;;;;;;;18.15;3.03;;;;;;;7.14;83.69;99290.88;5078493;28;20056;-71
2020/12/24 03:50:58;;;;;;;10.95;1.90;;;;;;;7.16;83.34;99293.47;5078130;28;20048;-71
2020/12/24 03:53:24;;;;;;;15.82;2.25;;;;;;;7.16;82.90;99289.03;5078277;28;20052;-71
2020/12/24 03:55:50;;;;;;;13.25;1.98;;;;;;;7.20;83.67;99279.91;5077921;28;20117;-71
2020/12/24 03:58:16;;;;;;;9.82;1.85;;;;;;;7.14;83.78;99280.28;5077765;28;20049;-71
2020/12/24 04:00:42;;;;;;;9.57;1.50;;;;;;;7.12;83.81;99284.84;5077909;28;20052;-71
2020/12/24 04:03:08;;;;;;;10.95;2.00;;;;;;;7.10;83.63;99286.75;5078034;28;20378;-71
2020/12/24 04:05:34;;;;;;;8.77;1.98;;;;;;;7.06;83.77;99270.16;5077755;28;20056;-72
2020/12/24 04:08:01;;;;;;;11.77;2.10;;;;;;;7.02;84.34;99286.31;5077977;28;20389;-71
2020/12/24 04:10:27;;;;;;;12.27;2.05;;;;;;;7.05;84.25;99287.03;5077780;28;20123;-70
2020/12/24 04:12:53;;;;;;;10.70;1.50;;;;;;;7.04;84.30;99290.59;5077501;28;20057;-70
2020/12/24 04:15:19;;;;;;;12.57;3.00;;;;;;;6.99;85.55;99286.53;5076835;28;20365;-71
2020/12/24 04:17:45;;;;;;;13.95;3.53;;;;;;;6.91;87.11;99294.94;5077655;28;20400;-71
2020/12/24 04:20:12;;;;;;;14.13;1.83;;;;;;;6.82;87.01;99293.72;5077495;28;20059;-70
2020/12/24 04:22:40;;;;;;;9.27;1.48;;;;;;;6.63;88.32;99264.75;5077374;28;20060;-71
2020/12/24 04:25:06;;;;;;;11.20;1.70;;;;;;;6.72;87.22;99289.88;5077293;28;20380;-71
2020/12/24 04:27:32;;;;;;;13.60;1.70;;;;;;;6.66;87.58;99286.63;5077270;28;20056;-70
2020/12/24 04:29:58;;;;;;;8.13;1.50;;;;;;;6.64;87.98;99287.66;5076495;28;20048;-70
2020/12/24 04:32:24;;;;;;;11.20;1.73;;;;;;;6.59;88.46;99279.97;5077323;28;20495;-71
2020/12/24 04:34:50;;;;;;;7.10;1.25;;;;;;;6.52;89.69;99282.16;5076171;28;20323;-71
2020/12/24 04:37:18;;;;;;;9.13;1.67;;;;;;;6.56;89.03;99282.84;5077300;28;20397;-70
2020/12/24 04:39:45;;;;;;;7.53;1.52;;;;;;;6.51;89.59;99282.25;5077124;28;20102;-71
2020/12/24 04:42:13;;;;;;;11.13;1.48;;;;;;;6.52;89.66;99289.25;5077261;28;20102;-71
2020/12/24 04:44:41;;;;;;;8.93;1.55;;;;;;;6.42;89.78;99272.19;5077359;28;20049;-70
2020/12/24 04:47:09;;;;;;;4.65;1.02;;;;;;;6.48;89.77;99283.28;5077279;28;20049;-71
2020/12/24 04:49:36;;;;;;;10.57;1.50;;;;;;;6.50;90.45;99285.84;5077231;28;20096;-70
2020/12/24 04:52:02;;;;;;;8.55;1.30;;;;;;;6.52;89.73;99284.81;5077087;28;20060;-71
2020/12/24 04:54:28;;;;;;;6.30;1.13;;;;;;;6.48;89.97;99293.03;5076802;28;20045;-71
2020/12/24 04:57:05;;;;;;;11.13;1.52;;;;;;;6.46;90.03;99287.81;5077144;28;20053;-71
2020/12/24 04:59:32;;;;;;;8.13;1.25;;;;;;;6.47;90.14;99300.13;5076741;28;20110;-71
2020/12/24 05:02:00;;;;;;;9.55;1.42;;;;;;;6.50;90.26;99302.59;5076585;28;20059;-71
2020/12/24 05:04:27;;;;;;;8.50;1.20;;;;;;;6.56;89.64;99295.22;5076339;28;20422;-72
2020/12/24 05:07:00;;;;;;;6.40;1.10;;;;;;;6.55;89.87;99301.47;5076659;28;20056;-71
2020/12/24 05:09:26;;;;;;;8.75;1.30;;;;;;;6.46;88.89;99285.16;5076723;28;20417;-70
2020/12/24 05:11:52;;;;;;;10.07;1.30;;;;;;;6.59;89.36;99295.91;5075607;28;20238;-72
2020/12/24 05:14:23;;;;;;;5.78;1.17;;;;;;;6.66;88.16;99296.41;5076691;28;20053;-71
2020/12/24 05:16:56;;;;;;;10.57;1.30;;;;;;;6.64;88.33;99290.31;5076862;28;20056;-72
2020/12/24 05:19:23;;;;;;;6.63;1.00;;;;;;;6.66;88.37;99297.25;5076346;28;20061;-72
2020/12/24 05:21:49;;;;;;;6.70;1.17;;;;;;;6.64;88.73;99288.53;5076949;28;20075;-72
2020/12/24 05:24:25;;;;;;;8.02;1.10;;;;;;;6.62;88.08;99294.88;5075171;28;20090;-72
2020/12/24 05:26:52;;;;;;;7.68;1.20;;;;;;;6.60;88.55;99294.94;5074362;28;20052;-72
2020/12/24 05:29:19;;;;;;;4.68;1.30;;;;;;;6.60;88.54;99286.16;5076489;28;20059;-72
2020/12/24 05:31:52;;;;;;;8.00;1.20;;;;;;;6.59;88.62;99293.25;5076455;28;20052;-72
2020/12/24 05:34:19;;;;;;;11.25;1.60;;;;;;;6.54;89.31;99290.00;5076271;28;20048;-73
2020/12/24 05:36:45;;;;;;;3.40;1.02;;;;;;;6.49;89.61;99289.44;5075928;28;20441;-72
2020/12/24 05:39:12;;;;;;;8.35;1.23;;;;;;;6.47;89.00;99286.00;5076305;28;20052;-71
2020/12/24 05:41:39;;;;;;;4.70;1.40;;;;;;;6.44;88.66;99287.06;5076038;28;20049;-71
2020/12/24 05:44:10;;;;;;;5.05;1.23;;;;;;;6.35;89.12;99275.19;5075961;28;20106;-72
2020/12/24 05:46:44;;;;;;;10.25;1.80;;;;;;;6.42;89.14;99286.28;5076020;28;20048;-72
2020/12/24 05:49:14;;;;;;;6.78;0.82;;;;;;;6.35;88.89;99259.28;5076113;28;20048;-71
2020/12/24 05:51:59;;;;;;;8.70;1.98;;;;;;;6.49;88.87;99278.84;5074977;28;20060;-73
2020/12/24 05:54:30;;;;;;;8.02;1.08;;;;;;;6.55;87.21;99277.63;5075886;28;20041;-72
2020/12/24 05:56:57;;;;;;;;;;;;;;;6.55;88.59;99281.13;5076392;28;20048;-71
2020/12/24 05:59:25;;;;;;;3.58;0.85;;;;;;;6.64;87.01;99277.06;5075784;28;19994;-71
2020/12/24 06:02:12;;;;;;;4.93;0.80;;;;;;;6.63;87.14;99281.53;5075843;28;20117;-71
2020/12/24 06:04:44;;;;;;;4.30;0.80;;;;;;;6.63;86.95;99286.81;5075785;28;20052;-72
2020/12/24 06:07:28;;;;;;;4.78;0.80;;;;;;;6.61;85.84;99279.91;5075533;28;20461;-70
2020/12/24 06:10:04;;;;;;;3.70;1.08;;;;;;;6.60;86.74;99281.69;5075733;28;20052;-71
2020/12/24 06:12:30;;;;;;;6.63;1.85;;;;;;;6.52;86.57;99273.34;5074252;28;20057;-71
2020/12/24 06:14:59;;;;;;;4.70;1.08;;;;;;;6.43;86.98;99255.34;5075362;28;20106;-72
2020/12/24 06:17:27;;;;;;;3.45;1.13;;;;;;;6.52;86.94;99283.94;5075712;28;20060;-72
2020/12/24 06:19:54;;;;;;;4.97;0.90;;;;;;;6.53;87.18;99288.28;5074948;28;20469;-72
2020/12/24 06:22:23;;;;;;;4.85;0.90;;;;;;;6.54;87.68;99294.47;5076102;28;20589;-71
2020/12/24 06:24:59;;;;;;;4.53;0.70;;;;;;;6.59;87.68;99292.41;5075214;28;20044;-70
2020/12/24 06:27:35;;;;;;;7.38;1.27;;;;;;;6.59;88.18;99295.06;5075318;28;20052;-72
2020/12/24 06:30:04;;;;;;;4.10;0.77;;;;;;;6.60;87.78;99292.28;5075264;28;20456;-72
2020/12/24 06:32:34;;;;;;;3.45;1.35;;;;;;;6.60;87.40;99300.25;5075310;28;20055;-72
2020/12/24 06:35:01;;;;;;;8.38;1.00;;;;;;;6.57;87.94;99304.88;5074073;28;20048;-72
2020/12/24 06:37:27;;;;;;;4.57;1.40;;;;;;;6.58;87.86;99309.25;5075080;28;20126;-72
2020/12/24 06:39:54;;;;;;;6.57;1.17;;;;;;;6.65;87.27;99306.16;5075087;28;20056;-71
2020/12/24 06:42:35;;;;;;;4.47;1.20;;;;;;;6.64;87.75;99317.69;5075345;28;20048;-70
2020/12/24 06:45:03;;;;;;;;;;;;;;;6.61;87.62;99314.38;5075613;28;20052;-71
2020/12/24 06:47:29;;;;;;;4.30;1.02;;;;;;;6.60;87.91;99318.81;5072136;28;19932;-72
2020/12/24 06:49:55;;;;;;;5.32;1.38;;;;;;;6.62;86.89;99326.69;5065044;28;20056;-70
2020/12/24 06:52:32;;;;;;;4.35;1.00;;;;;;;6.60;88.04;99326.75;5066420;28;20048;-71
2020/12/24 06:55:13;;;;;;;4.28;0.73;;;;;;;6.66;87.97;99322.91;5056735;28;20080;-74
2020/12/24 06:57:42;;;;;;;2.25;0.80;;;;;;;6.66;87.83;99333.53;5055052;28;20072;-70
2020/12/24 07:00:20;;;;;;;3.38;0.90;;;;;;;6.69;87.61;99341.28;5054954;28;20049;-72
2020/12/24 07:02:50;;;;;;;5.15;1.00;;;;;;;6.69;87.51;99340.47;5055027;28;20067;-71
2020/12/24 07:05:41;;;;;;;4.57;1.10;;;;;;;6.68;88.04;99352.84;5055054;28;20342;-73
2020/12/24 07:08:09;;;;;;;4.60;1.10;;;;;;;6.71;87.75;99350.00;5058433;28;20059;-72
2020/12/24 07:10:42;;;;;;;4.53;0.88;;;;;;;6.69;87.38;99345.75;5060101;28;20049;-72
2020/12/24 07:13:09;;;;;;;6.25;1.40;;;;;;;6.72;87.51;99348.22;5061252;28;20053;-72
2020/12/24 07:15:44;;;;;;;3.15;0.82;;;;;;;6.65;87.30;99345.91;5066301;28;20044;-71
2020/12/24 07:18:12;;;;;;;4.88;0.90;;;;;;;6.70;87.71;99361.56;5074122;28;20056;-72
2020/12/24 07:20:40;;;;;;;4.10;1.02;;;;;;;6.61;87.19;99348.84;5074492;28;20052;-76
2020/12/24 07:23:09;;;;;;;6.68;0.90;;;;;;;6.62;87.53;99361.16;5073674;28;20048;-72
2020/12/24 07:25:36;;;;;;;4.90;1.17;;;;;;;6.65;87.82;99377.75;5053676;28;20139;-70
2020/12/24 07:28:03;;;;;;;5.82;1.10;;;;;;;6.69;87.60;99382.88;5059716;28;20142;-72
2020/12/24 07:30:29;;;;;;;5.50;1.30;;;;;;;6.68;87.95;99383.81;5058819;28;20471;-72
2020/12/24 07:32:57;;;;;;;6.35;1.15;;;;;;;6.52;88.06;99358.19;5071816;28;20052;-72
2020/12/24 07:35:23;;;;;;;4.32;1.20;;;;;;;6.70;87.95;99381.94;5074554;28;20048;-71
2020/12/24 07:37:53;;;;;;;5.22;1.52;;;;;;;6.70;87.66;99388.06;5074603;28;20049;-71
2020/12/24 07:40:28;;;;;;;3.90;0.98;;;;;;;6.65;87.84;99391.00;5060031;28;20136;-72
2020/12/24 07:43:09;;;;;;;4.60;1.40;;;;;;;6.70;87.78;99392.53;5074558;28;20057;-70
2020/12/24 07:45:35;;;;;;;3.53;1.20;;;;;;;6.68;87.99;99395.28;5068745;28;20084;-71
2020/12/24 07:48:01;;;;;;;6.72;1.60;;;;;;;6.72;88.17;99403.91;5063243;28;20113;-70
2020/12/24 07:50:31;;;;;;;3.13;1.20;;;;;;;6.66;88.80;99403.31;5073880;28;20445;-72
2020/12/24 07:53:16;;;;;;;4.82;1.30;;;;;;;6.69;88.58;99409.41;5075692;28;20390;-71
2020/12/24 07:55:42;;;;;;;5.72;1.50;;;;;;;6.64;88.15;99404.34;5070682;28;20049;-72
2020/12/24 07:58:15;;;;;;;4.55;1.33;;;;;;;6.66;88.07;99403.31;5076766;28;20102;-72
2020/12/24 08:00:47;;;;;;;7.57;2.05;;;;;;;6.68;88.05;99415.63;5078036;28;20060;-72
2020/12/24 08:03:17;;;;;;;7.82;1.48;;;;;;;6.74;88.17;99429.41;5077878;28;20063;-72
2020/12/24 08:05:45;;;;;;;6.45;1.60;;;;;;;6.74;87.88;99428.53;5077200;28;20135;-71
2020/12/24 08:08:11;;;;;;;7.25;2.10;;;;;;;6.71;88.23;99426.91;5077725;28;20110;-73
2020/12/24 08:10:39;;;;;;;10.45;1.75;;;;;;;6.75;88.51;99419.66;5078026;28;20060;-73
2020/12/24 08:13:06;;;;;;;7.50;1.35;;;;;;;6.72;88.09;99426.00;5071922;28;20052;-71
2020/12/24 08:15:34;;;;;;;5.95;1.30;;;;;;;6.77;87.99;99426.56;5057479;28;20048;-73
2020/12/24 08:18:04;;;;;;;7.00;1.60;;;;;;;6.72;88.82;99428.66;5061738;28;20057;-73
2020/12/24 08:20:45;;;;;;;5.15;1.90;;;;;;;6.78;88.57;99441.56;5075713;28;20066;-74
2020/12/24 08:23:44;;;;;;;9.75;1.80;;;;;;;6.83;88.52;99449.25;5073461;28;20045;-74
2020/12/24 08:26:14;;;;;;;;;;;;;;;6.85;88.70;99452.66;5076500;28;20053;-77
2020/12/24 08:28:54;;;;;;;6.35;1.58;;;;;;;6.85;88.26;99444.69;5067954;28;19959;-76
2020/12/24 08:31:22;;;;;;;6.15;1.30;;;;;;;6.83;88.89;99451.03;5076193;28;20061;-75
2020/12/24 08:33:51;;;;;;;6.18;1.73;;;;;;;6.75;88.66;99443.53;5077697;28;20044;-79
2020/12/24 08:36:28;;;;;;;8.60;1.80;;;;;;;6.89;88.38;99450.69;5077210;28;20102;-74
2020/12/24 08:39:06;;;;;;;5.07;1.65;;;;;;;6.87;88.06;99458.72;5076938;28;20063;-75
2020/12/24 08:41:35;;;;;;;5.18;2.00;;;;;;;6.77;88.11;99446.94;5076628;28;20060;-79
2020/12/24 08:44:04;;;;;;;4.68;1.73;;;;;;;6.90;88.49;99466.53;5060573;28;20045;-78
2020/12/24 08:46:31;;;;;;;6.15;1.70;;;;;;;6.80;88.80;99457.38;5076083;28;20051;-76
2020/12/24 08:49:17;;;;;;;7.55;1.98;;;;;;;6.88;88.54;99471.06;5076411;28;20106;-77
2020/12/24 08:51:43;;;;;;;6.60;1.80;;;;;;;6.84;88.38;99473.97;5077806;28;20056;-79
2020/12/24 08:54:09;;;;;;;8.18;2.00;;;;;;;6.87;88.59;99474.63;5076465;28;20338;-81
2020/12/24 08:56:37;;;;;;;11.35;2.33;;;;;;;6.92;88.55;99472.59;5076262;28;20044;-78
2020/12/24 08:59:08;;;;;;;7.20;2.78;;;;;;;6.94;88.78;99480.47;5076849;28;20070;-79
2020/12/24 09:01:40;;;;;;;8.75;2.17;;;;;;;6.95;88.35;99487.47;5075794;28;20110;-85
2020/12/24 09:04:10;;;;;;;;;;;;;;;6.98;88.07;99486.47;5079324;28;20045;-81
2020/12/24 09:06:36;;;;;;;7.22;1.80;;;;;;;6.99;88.52;99499.63;5077536;28;19924;-78
2020/12/24 09:09:03;;;;;;;5.80;2.50;;;;;;;7.03;88.16;99506.47;5076897;28;20052;-78
2020/12/24 09:11:33;;;;;;;6.68;2.13;;;;;;;7.13;88.52;99509.44;5076930;28;20052;-78
2020/12/24 09:14:04;;;;;;;9.10;2.40;;;;;;;7.03;88.07;99500.31;5072303;28;20048;-80
2020/12/24 09:16:33;;;;;;;10.23;2.40;;;;;;;7.07;88.34;99525.72;5066254;28;20381;-80
2020/12/24 09:19:08;;;;;;;8.98;2.33;;;;;;;7.03;88.96;99517.06;5056317;28;20056;-78
2020/12/24 09:21:34;;;;;;;10.73;2.53;;;;;;;7.06;89.19;99563.81;5059269;28;20074;-77
2020/12/24 09:24:11;;;;;;;5.88;1.95;;;;;;;6.90;89.10;99588.56;5072458;28;20056;-78
2020/12/24 09:26:45;;;;;;;2.00;1.05;;;;;;;5.86;92.37;99586.00;5075243;28;20051;-73
2020/12/24 09:29:12;;;;;;;1.27;0.80;;;;;;;5.16;92.64;99557.66;5076179;28;20142;-78
2020/12/24 09:31:38;;;;;;;1.25;1.15;;;;;;;5.24;94.79;99621.63;5075027;28;20049;-76
2020/12/24 09:34:07;;;;;;;0.85;0.85;;;;;;;5.16;94.89;99622.00;5075776;28;20430;-77
2020/12/24 09:36:34;;;;;;;0.80;0.80;;;;;;;4.96;93.75;99640.59;5060775;28;20049;-77
2020/12/24 09:39:00;;;;;;;1.02;0.93;;;;;;;4.48;94.29;99615.38;5071584;28;20045;-78
2020/12/24 09:41:26;;;;;;;1.20;1.10;;;;;;;4.54;95.20;99660.97;5056431;28;20053;-78
2020/12/24 09:43:52;;;;;;;1.10;1.00;;;;;;;4.50;95.09;99649.66;5070379;28;20434;-80
2020/12/24 09:46:19;;;;;;;2.15;1.30;;;;;;;4.45;94.32;99675.44;5076361;28;20053;-79
2020/12/24 09:48:46;;;;;;;1.45;1.35;;;;;;;4.44;95.77;99679.00;5080847;28;20354;-80
2020/12/24 09:51:12;;;;;;;5.82;2.30;;;;;;;4.23;94.88;99686.09;5081404;28;20044;-78
2020/12/24 09:53:38;;;;;;;1.30;1.20;;;;;;;4.35;95.61;99704.03;5076210;28;20114;-77
2020/12/24 09:56:05;;;;;;;1.65;1.55;;;;;;;4.22;95.25;99706.34;5075499;28;20102;-78
2020/12/24 09:58:31;;;;;;;2.17;1.67;;;;;;;4.16;95.79;99710.13;5070828;28;20131;-77
2020/12/24 10:00:57;;;;;;;1.73;1.63;;;;;;;4.21;95.96;99723.13;5056246;28;20053;-79
2020/12/24 10:03:24;;;;;;;1.63;1.42;;;;;;;4.11;95.29;99716.50;5057519;28;20066;-78
2020/12/24 10:05:50;;;;;;;1.73;1.50;;;;;;;4.05;96.69;99721.09;5056487;28;20335;-80
2020/12/24 10:08:16;;;;;;;1.60;1.50;;;;;;;4.15;96.18;99729.50;5055769;28;20045;-77
2020/12/24 10:10:44;;;;;;;1.70;1.38;;;;;;;4.11;96.15;99741.13;5054888;28;20099;-77
2020/12/24 10:13:11;;;;;;;1.52;1.30;;;;;;;4.16;96.71;99741.81;5070313;28;20080;-80
2020/12/24 10:15:37;;;;;;;1.20;1.10;;;;;;;4.18;95.49;99736.44;5071274;28;20077;-78
2020/12/24 10:18:03;;;;;;;1.83;1.20;;;;;;;4.23;95.66;99752.13;5071106;28;20339;-74
2020/12/24 10:20:30;;;;;;;1.10;1.00;;;;;;;4.18;95.36;99752.28;5068136;28;20350;-74
2020/12/24 10:22:56;;;;;;;1.45;1.35;;;;;;;4.20;95.95;99764.53;5069830;28;20152;-71
2020/12/24 10:25:22;;;;;;;1.25;1.15;;;;;;;4.14;94.60;99763.94;5072999;28;20048;-72
2020/12/24 10:27:49;;;;;;;3.30;1.20;;;;;;;3.96;96.49;99739.97;5064604;28;20048;-72
2020/12/24 10:30:17;;;;;;;0.90;0.90;;;;;;;4.08;95.66;99773.81;5065612;28;20056;-74
2020/12/24 10:32:43;;;;;;;0.98;0.77;;;;;;;4.03;95.12;99780.22;5062762;28;20095;-74
2020/12/24 10:35:10;;;;;;;3.30;1.08;;;;;;;4.01;96.15;99789.94;5063951;28;20438;-74
2020/12/24 10:37:36;;;;;;;0.93;0.90;;;;;;;3.98;96.23;99795.38;5065250;28;20053;-74
2020/12/24 10:40:04;;;;;;;1.70;0.82;;;;;;;4.00;96.50;99801.44;5063498;28;20099;-74
2020/12/24 10:42:33;;;;;;;1.67;0.90;;;;;;;3.96;96.83;99807.78;5062345;28;20055;-75
2020/12/24 10:44:59;;;;;;;1.27;1.08;;;;;;;3.83;96.45;99807.38;5063555;28;20049;-74
2020/12/24 10:47:28;;;;;;;2.83;1.52;;;;;;;3.93;96.72;99820.16;5064536;28;20048;-74
2020/12/24 10:49:54;;;;;;;2.30;1.92;;;;;;;3.76;96.23;99810.25;5060950;28;20049;-72
2020/12/24 10:52:20;;;;;;;2.00;1.80;;;;;;;3.87;96.14;99824.84;5066298;28;20045;-72
2020/12/24 10:54:47;;;;;;;2.05;1.85;;;;;;;3.94;96.68;99832.44;5072211;28;20049;-74
2020/12/24 10:57:13;;;;;;;3.85;1.70;;;;;;;3.89;95.94;99837.06;5063118;28;20095;-73
2020/12/24 10:59:39;;;;;;;2.60;2.03;;;;;;;3.89;96.41;99844.97;5064713;28;20106;-74
2020/12/24 11:02:06;;;;;;;1.88;1.65;;;;;;;3.90;96.51;99848.47;5061505;28;20437;-75
2020/12/24 11:04:33;;;;;;;1.75;1.65;;;;;;;3.98;96.35;99851.66;5065554;28;20052;-76
2020/12/24 11:06:59;;;;;;;2.83;1.77;;;;;;;3.97;96.48;99843.81;5062993;28;20057;-76
2020/12/24 11:09:25;;;;;;;2.05;1.83;;;;;;;3.94;96.07;99861.50;5054618;28;20111;-72
2020/12/24 11:11:52;;;;;;;4.43;2.38;;;;;;;3.97;95.50;99868.44;5070116;28;20354;-71
2020/12/24 11:14:18;;;;;;;2.55;1.40;;;;;;;3.82;95.24;99875.19;5067517;28;20052;-71
2020/12/24 11:16:44;;;;;;;1.83;1.65;;;;;;;3.71;96.10;99866.78;5074129;28;20056;-71
2020/12/24 11:19:10;;;;;;;2.80;2.03;;;;;;;3.78;96.12;99874.44;5064983;28;20073;-71
2020/12/24 11:21:36;;;;;;;2.70;2.15;;;;;;;3.80;96.72;99877.88;5068808;28;20052;-72
2020/12/24 11:24:06;;;;;;;5.15;2.10;;;;;;;3.81;95.71;99876.06;5074443;28;20106;-73
2020/12/24 11:26:37;;;;;;;2.20;1.90;;;;;;;3.82;96.31;99879.59;5076790;28;20052;-73
2020/12/24 11:29:04;;;;;;;;;;;;;;;3.89;96.34;99886.34;5078999;28;20052;-71
2020/12/24 11:31:34;;;;;;;2.90;1.90;;;;;;;3.87;94.90;99883.75;5075657;28;19970;-71
2020/12/24 11:34:00;;;;;;;2.58;1.95;;;;;;;3.82;95.76;99896.31;5076617;28;20105;-71
2020/12/24 11:36:27;;;;;;;4.05;2.20;;;;;;;3.85;95.80;99890.03;5078048;28;20048;-71
2020/12/24 11:38:55;;;;;;;2.40;2.20;;;;;;;3.84;96.24;99893.59;5077845;28;20044;-71
2020/12/24 11:41:23;;;;;;;2.40;2.05;;;;;;;3.94;96.79;99897.63;5078085;28;20396;-71
2020/12/24 11:43:51;;;;;;;3.75;2.38;;;;;;;3.88;96.25;99893.41;5077919;28;20044;-70